Time;durP1;ratioP1;P1;durP2;ratioP2;P2;SDS_P1;SDS_P2;PMS_P1;PMS_P2;Temp;Humidity;BMP_temperature;BMP_pressure;BME280_temperature;BME280_humidity;BME280_pressure;Samples;Min_cycle;Max_cycle;Signal;HPM_P1;HPM_P2
2021/06/11 00:00:46;;;;;;;3.38;3.03;;;17.10;99.90;;;16.66;84.60;100715.66;5088782;28;20059;-57
2021/06/11 00:03:12;;;;;;;3.33;3.13;;;17.10;99.90;;;16.72;84.35;100714.94;5083226;28;20068;-55
2021/06/11 00:05:39;;;;;;;5.78;2.88;;;17.20;99.90;;;16.77;83.76;100713.41;5086740;28;20031;-57
2021/06/11 00:08:05;;;;;;;3.25;2.78;;;17.30;99.90;;;16.81;83.43;100713.88;5086530;28;20046;-56
2021/06/11 00:10:32;;;;;;;3.25;2.80;;;17.30;99.90;;;16.82;83.83;100718.16;5083146;28;20545;-56
2021/06/11 00:12:59;;;;;;;4.25;2.88;;;17.30;99.90;;;16.79;83.76;100714.06;5079497;28;20123;-56
2021/06/11 00:15:27;;;;;;;3.20;2.90;;;17.30;99.90;;;16.80;83.74;100709.63;5086022;28;20075;-62
2021/06/11 00:17:54;;;;;;;3.80;2.38;;;17.30;99.90;;;16.82;83.99;100712.88;5084277;28;20344;-57
2021/06/11 00:20:21;;;;;;;5.40;2.45;;;17.30;99.90;;;16.80;84.06;100709.63;5088358;28;20028;-54
2021/06/11 00:22:48;;;;;;;2.63;2.42;;;17.30;99.90;;;16.74;84.67;100705.88;5068726;28;20110;-51
2021/06/11 00:25:24;;;;;;;5.68;2.90;;;17.30;99.90;;;16.68;85.08;100708.41;5085020;28;20383;-54
2021/06/11 00:27:52;;;;;;;3.97;2.97;;;17.20;99.90;;;16.68;84.66;100698.69;5084825;28;20479;-54
2021/06/11 00:30:20;;;;;;;3.67;3.03;;;17.20;99.90;;;16.68;84.68;100696.06;5082422;28;20032;-53
2021/06/11 00:32:47;;;;;;;4.75;2.97;;;17.20;99.90;;;16.67;84.88;100694.44;5086368;28;20400;-59
2021/06/11 00:35:14;;;;;;;4.07;2.80;;;17.20;99.90;;;16.73;84.06;100685.00;5084966;28;20032;-56
2021/06/11 00:37:40;;;;;;;3.88;2.67;;;17.20;99.90;;;16.75;83.90;100691.72;5085588;28;20437;-57
2021/06/11 00:40:10;;;;;;;4.75;2.92;;;17.20;99.90;;;16.73;84.28;100682.38;5083997;28;20084;-56
2021/06/11 00:42:37;;;;;;;3.42;2.72;;;17.30;99.90;;;16.70;84.09;100688.81;5064638;28;20045;-55
2021/06/11 00:45:07;;;;;;;3.78;2.58;;;17.20;99.90;;;16.68;83.63;100680.28;5062157;28;20111;-59
2021/06/11 00:47:33;;;;;;;3.55;2.92;;;17.20;99.90;;;16.65;83.69;100685.09;5059665;28;20495;-53
2021/06/11 00:49:59;;;;;;;5.32;2.67;;;17.10;99.90;;;16.59;83.76;100682.13;5067997;28;20075;-55
2021/06/11 00:52:25;;;;;;;2.42;2.22;;;17.10;99.90;;;16.64;83.33;100681.63;5066017;28;20039;-61
2021/06/11 00:54:52;;;;;;;2.92;2.50;;;17.10;99.90;;;16.66;83.12;100679.66;5060609;28;20665;-58
2021/06/11 00:57:18;;;;;;;3.03;2.70;;;17.20;99.90;;;16.69;82.90;100667.94;5063787;28;20041;-61
2021/06/11 00:59:44;;;;;;;2.65;2.42;;;17.20;99.90;;;16.80;82.22;100670.16;5060700;28;20448;-59
2021/06/11 01:02:11;;;;;;;2.17;1.92;;;17.20;99.90;;;16.90;81.35;100665.44;5065894;28;20043;-60
2021/06/11 01:04:37;;;;;;;3.60;2.20;;;17.30;99.90;;;16.90;81.10;100671.53;5062594;28;20035;-64
2021/06/11 01:07:05;;;;;;;2.45;2.25;;;17.40;99.90;;;16.89;81.56;100662.00;5068874;28;20043;-58
2021/06/11 01:09:34;;;;;;;3.50;2.20;;;17.40;99.90;;;16.88;81.54;100665.63;5065132;28;20029;-51
2021/06/11 01:12:00;;;;;;;2.33;2.13;;;17.40;99.90;;;16.82;82.14;100666.34;5060540;28;20040;-56
2021/06/11 01:14:27;;;;;;;4.35;2.72;;;17.30;99.90;;;16.73;82.76;100663.97;5059951;28;20074;-58
2021/06/11 01:16:53;;;;;;;2.88;2.63;;;17.20;99.90;;;16.62;84.14;100665.19;5069996;28;20040;-54
2021/06/11 01:19:40;;;;;;;3.88;3.03;;;17.20;99.90;;;16.56;84.45;100661.44;5065760;28;20396;-53
2021/06/11 01:22:18;;;;;;;4.13;2.78;;;17.10;99.90;;;16.52;84.97;100659.38;5071174;28;20322;-55
2021/06/11 01:25:05;;;;;;;3.35;2.65;;;17.10;99.90;;;16.52;84.92;100662.00;5060347;28;20484;-55
2021/06/11 01:27:33;;;;;;;3.97;3.05;;;17.00;99.90;;;16.50;84.67;100656.13;5071193;28;20056;-57
2021/06/11 01:30:15;;;;;;;4.65;3.08;;;17.00;99.90;;;16.49;85.73;100654.47;5060777;28;20086;-57
2021/06/11 01:32:44;;;;;;;3.55;3.10;;;17.00;99.90;;;16.48;85.33;100663.38;5031110;28;20037;-57
2021/06/11 01:35:19;;;;;;;3.58;2.60;;;17.00;99.90;;;16.43;85.49;100653.38;5046380;28;20415;-63
2021/06/11 01:37:49;;;;;;;3.72;3.25;;;17.00;99.90;;;16.39;85.80;100665.25;5031254;28;20091;-57
2021/06/11 01:40:15;;;;;;;3.17;2.88;;;16.90;99.90;;;16.34;85.57;100656.25;5059952;28;20131;-57
2021/06/11 01:42:47;;;;;;;3.78;2.70;;;16.90;99.90;;;16.30;85.99;100654.97;5081596;28;20132;-57
2021/06/11 01:45:14;;;;;;;5.45;2.88;;;16.80;99.90;;;16.37;84.90;100650.63;5082809;28;20071;-50
2021/06/11 01:47:50;;;;;;;4.53;2.60;;;16.80;99.90;;;16.43;84.44;100652.56;5072664;28;20036;-61
2021/06/11 01:50:24;;;;;;;3.35;2.88;;;16.90;99.90;;;16.39;84.95;100646.03;5090646;28;20028;-61
2021/06/11 01:52:54;;;;;;;4.47;2.35;;;16.90;99.90;;;16.43;84.83;100644.66;5073318;28;20036;-64
2021/06/11 01:55:22;;;;;;;3.33;2.45;;;16.90;99.90;;;16.38;84.80;100649.63;5058583;28;20028;-54
2021/06/11 01:57:49;;;;;;;3.72;2.30;;;16.90;99.90;;;16.33;85.33;100644.91;5076568;28;20028;-53
2021/06/11 02:00:17;;;;;;;4.47;2.75;;;16.90;99.90;;;16.36;85.33;100641.13;5064540;28;20036;-57
2021/06/11 02:02:45;;;;;;;3.58;2.80;;;16.90;99.90;;;16.32;85.34;100643.28;5072564;28;20462;-57
2021/06/11 02:05:12;;;;;;;3.55;2.72;;;16.80;99.90;;;16.29;85.82;100640.19;5088516;28;20081;-51
2021/06/11 02:07:40;;;;;;;3.45;2.75;;;16.80;99.90;;;16.24;86.49;100633.63;5072660;28;20032;-58
2021/06/11 02:10:09;;;;;;;4.50;2.63;;;16.80;99.90;;;16.24;86.71;100635.44;5088551;28;20476;-61
2021/06/11 02:12:36;;;;;;;2.58;1.92;;;16.70;99.90;;;16.26;86.29;100634.28;5084217;28;20035;-60
2021/06/11 02:15:06;;;;;;;2.92;2.30;;;16.70;99.90;;;16.26;86.83;100633.47;5064579;28;20127;-55
2021/06/11 02:17:34;;;;;;;5.43;3.22;;;16.70;99.90;;;16.26;86.21;100634.28;5090289;28;20125;-58
2021/06/11 02:20:01;;;;;;;4.03;2.38;;;16.70;99.90;;;16.23;86.09;100623.31;5069496;28;20089;-59
2021/06/11 02:22:27;;;;;;;2.22;2.03;;;16.70;99.90;;;16.20;86.49;100632.34;5090710;28;20032;-60
2021/06/11 02:24:52;;;;;;;3.60;2.58;;;16.70;99.90;;;16.18;86.74;100621.19;5086165;28;20047;-57
2021/06/11 02:27:20;;;;;;;2.63;2.42;;;16.70;99.90;;;16.19;86.15;100627.28;5086235;28;20051;-61
2021/06/11 02:29:46;;;;;;;2.03;1.92;;;16.60;99.90;;;16.28;84.93;100620.97;5067932;28;20046;-57
2021/06/11 02:32:12;;;;;;;2.75;2.53;;;16.70;99.90;;;16.40;84.12;100621.34;5087550;28;20036;-62
2021/06/11 02:34:38;;;;;;;3.75;2.05;;;16.80;99.90;;;16.40;83.96;100631.88;5087194;28;20046;-51
2021/06/11 02:37:04;;;;;;;3.55;2.30;;;16.80;99.90;;;16.41;83.48;100636.13;5089826;28;20515;-54
2021/06/11 02:39:30;;;;;;;2.53;2.33;;;16.90;99.90;;;16.40;83.39;100632.69;5083667;28;20446;-60
2021/06/11 02:42:02;;;;;;;2.20;2.00;;;16.90;99.90;;;16.37;83.89;100643.56;5085476;28;20281;-60
2021/06/11 02:44:32;;;;;;;2.53;2.33;;;16.90;99.90;;;16.36;84.15;100643.75;5083475;28;20033;-57
2021/06/11 02:47:08;;;;;;;2.33;2.10;;;16.90;99.90;;;16.32;84.19;100648.53;5062393;28;20515;-58
2021/06/11 02:49:49;;;;;;;3.17;1.98;;;16.80;99.90;;;16.28;84.48;100642.00;5071073;28;20504;-60
2021/06/11 02:52:21;;;;;;;2.80;2.60;;;16.80;99.90;;;16.25;84.67;100640.53;5089678;28;20097;-58
2021/06/11 02:54:49;;;;;;;2.95;2.22;;;16.80;99.90;;;16.22;84.94;100637.44;5067871;28;20029;-50
2021/06/11 02:57:47;;;;;;;2.38;2.10;;;16.70;99.90;;;16.22;85.02;100635.63;5084295;28;20031;-55
2021/06/11 03:00:14;;;;;;;4.70;2.30;;;16.70;99.90;;;16.17;85.12;100637.16;5083358;28;20040;-60
2021/06/11 03:03:02;;;;;;;8.27;2.55;;;16.70;99.90;;;16.14;85.41;100635.69;5087259;28;20028;-57
2021/06/11 03:05:30;;;;;;;2.20;1.80;;;16.70;99.90;;;16.15;85.28;100636.50;5068356;28;20156;-59
2021/06/11 03:07:58;;;;;;;5.75;2.50;;;16.60;99.90;;;16.20;84.57;100637.63;5071336;28;20036;-52
2021/06/11 03:10:30;;;;;;;3.53;2.45;;;16.70;99.90;;;16.19;84.77;100641.25;5031335;23;21313;-57
2021/06/11 03:12:59;;;;;;;3.28;2.20;;;16.70;99.90;;;16.20;84.85;100635.00;5089098;28;20046;-55
2021/06/11 03:15:29;;;;;;;6.28;2.10;;;16.70;99.90;;;16.21;84.28;100638.44;5089427;28;20391;-56
2021/06/11 03:17:59;;;;;;;12.43;3.58;;;16.70;99.90;;;16.14;84.73;100640.94;5071017;28;20115;-52
2021/06/11 03:20:36;;;;;;;3.38;2.25;;;16.70;99.90;;;16.10;85.13;100638.84;5070493;28;20443;-56
2021/06/11 03:23:21;;;;;;;3.40;3.10;;;16.60;99.90;;;16.06;85.03;100640.22;5089194;28;20455;-49
2021/06/11 03:25:54;;;;;;;2.75;2.47;;;16.60;99.90;;;16.04;85.47;100645.66;5072240;28;20063;-53
2021/06/11 03:28:47;;;;;;;2.65;2.45;;;16.60;99.90;;;16.12;84.73;100645.56;5088858;28;20043;-59
2021/06/11 03:31:36;;;;;;;4.82;2.45;;;16.60;99.90;;;16.15;84.44;100642.59;5088104;28;20083;-53
2021/06/11 03:34:10;;;;;;;3.38;2.50;;;16.70;99.90;;;16.20;84.11;100642.06;5088827;28;20039;-57
2021/06/11 03:36:42;;;;;;;3.72;2.33;;;16.70;99.90;;;16.26;83.82;100654.50;5071189;28;20347;-55
2021/06/11 03:39:19;;;;;;;2.63;2.40;;;16.80;99.90;;;16.31;83.70;100649.53;5070453;28;20502;-58
2021/06/11 03:41:46;;;;;;;4.43;2.05;;;16.90;99.90;;;16.32;83.44;100650.34;5088634;28;20032;-53
2021/06/11 03:44:16;;;;;;;2.80;1.80;;;16.90;99.90;;;16.30;83.39;100649.69;5088565;28;20217;-52
2021/06/11 03:46:45;;;;;;;6.22;2.58;;;16.90;99.90;;;16.33;83.37;100658.06;5070652;28;20028;-60
2021/06/11 03:49:13;;;;;;;4.60;2.20;;;16.90;99.90;;;16.41;82.72;100654.53;5089001;28;20103;-55
2021/06/11 03:51:42;;;;;;;3.63;1.65;;;17.00;99.90;;;16.49;82.48;100659.75;5069159;28;20040;-50
2021/06/11 03:54:10;;;;;;;5.25;2.10;;;17.00;99.90;;;16.53;82.01;100663.66;5070804;28;20032;-60
2021/06/11 03:56:37;;;;;;;3.60;1.80;;;17.10;99.90;;;16.61;81.82;100658.28;5072727;28;20031;-53
2021/06/11 03:59:07;;;;;;;3.50;1.88;;;17.20;99.90;;;16.67;81.48;100662.88;5083722;28;20021;-46
2021/06/11 04:01:43;;;;;;;2.85;1.95;;;17.20;99.90;;;16.78;80.98;100651.09;5071767;28;20474;-59
2021/06/11 04:04:09;;;;;;;2.60;2.00;;;17.40;99.90;;;17.12;80.03;100658.44;5098434;28;20173;-51
2021/06/11 04:06:55;;;;;;;3.20;1.80;;;17.60;99.90;;;17.94;77.40;100653.78;5108783;28;20038;-63
2021/06/11 04:09:31;;;;;;;2.80;1.60;;;18.60;99.90;;;19.12;72.61;100655.66;5106231;28;20034;-63
2021/06/11 04:12:06;;;;;;;9.82;2.15;;;20.10;99.90;;;20.04;69.11;100657.81;5081784;28;20316;-54
2021/06/11 04:14:42;;;;;;;3.50;1.80;;;21.50;99.90;;;21.25;66.01;100653.88;5068125;28;20043;-58
2021/06/11 04:17:30;;;;;;;1.52;1.30;;;22.80;99.90;;;22.25;62.22;100643.47;5056025;28;20127;-62
2021/06/11 04:19:59;;;;;;;2.25;1.90;;;23.80;97.40;;;22.10;62.93;100651.78;5068008;28;20032;-58
2021/06/11 04:22:35;;;;;;;3.10;1.67;;;23.90;96.40;;;21.84;62.04;100660.69;5089551;28;20036;-61
2021/06/11 04:25:05;;;;;;;1.63;1.52;;;23.80;95.80;;;22.53;60.82;100657.13;5090402;28;20051;-58
2021/06/11 04:27:37;;;;;;;1.65;1.23;;;24.30;94.90;;;23.28;56.40;100652.47;5091647;28;20379;-57
2021/06/11 04:30:05;;;;;;;3.45;1.33;;;25.30;91.50;;;23.44;58.29;100654.53;5088107;28;20043;-55
2021/06/11 04:32:31;;;;;;;2.78;1.10;;;25.80;90.20;;;23.23;58.67;100664.81;5083570;28;20049;-56
2021/06/11 04:34:57;;;;;;;1.17;0.80;;;25.60;87.50;;;23.16;57.74;100654.25;5088112;28;20036;-52
2021/06/11 04:37:24;;;;;;;1.08;0.85;;;25.20;87.30;;;23.96;55.32;100662.03;5067613;28;20097;-60
2021/06/11 04:39:50;;;;;;;1.50;0.65;;;26.10;81.80;;;23.09;56.95;100664.16;5088314;28;20077;-61
2021/06/11 04:42:17;;;;;;;2.58;0.75;;;25.50;82.00;;;23.77;55.26;100667.41;5085999;28;20126;-55
2021/06/11 04:44:43;;;;;;;2.55;1.48;;;25.80;82.50;;;24.29;53.55;100667.66;5073888;28;20124;-59
2021/06/11 04:47:09;;;;;;;1.70;1.35;;;26.60;77.40;;;23.80;55.38;100663.47;5093319;28;20485;-59
2021/06/11 04:49:36;;;;;;;3.40;1.20;;;26.30;78.20;;;23.85;54.92;100660.13;5092073;28;20378;-56
2021/06/11 04:52:03;;;;;;;2.08;1.10;;;26.60;76.20;;;24.30;54.27;100668.47;5087720;28;20363;-61
2021/06/11 04:54:29;;;;;;;1.67;1.00;;;26.70;77.40;;;24.61;53.23;100665.47;5103956;28;20031;-58
2021/06/11 04:56:55;;;;;;;2.22;1.00;;;27.30;74.10;;;25.02;52.34;100671.75;5104181;28;20040;-58
2021/06/11 04:59:21;;;;;;;3.00;1.13;;;27.40;73.60;;;24.03;53.75;100668.06;5073246;28;20081;-59
2021/06/11 05:01:47;;;;;;;3.63;0.85;;;26.70;73.20;;;22.51;58.15;100664.50;5096728;28;20035;-60
2021/06/11 05:04:14;;;;;;;1.42;0.65;;;24.90;79.20;;;21.80;59.87;100668.25;5091932;28;20059;-55
2021/06/11 05:06:40;;;;;;;0.88;0.70;;;23.90;82.30;;;21.26;60.70;100666.09;5091283;28;20088;-58
2021/06/11 05:09:06;;;;;;;1.30;0.73;;;22.90;86.00;;;20.49;62.73;100680.88;5092816;28;20044;-59
2021/06/11 05:11:31;;;;;;;5.05;1.05;;;21.90;90.30;;;19.98;64.37;100683.22;5111290;28;20066;-61
2021/06/11 05:13:57;;;;;;;2.58;1.30;;;21.20;92.70;;;19.53;66.17;100682.91;5089743;28;20142;-55
2021/06/11 05:16:23;;;;;;;1.48;0.82;;;20.60;95.60;;;19.75;65.69;100673.03;5106849;28;20054;-53
2021/06/11 05:18:49;;;;;;;1.73;1.00;;;20.60;97.50;;;19.94;65.22;100676.72;5088884;28;20387;-58
2021/06/11 05:21:15;;;;;;;4.63;1.30;;;20.80;98.10;;;19.54;65.94;100689.81;5090820;28;20024;-49
2021/06/11 05:23:41;;;;;;;4.00;1.10;;;20.50;98.70;;;19.53;66.20;100690.84;5090797;28;20040;-55
2021/06/11 05:26:07;;;;;;;3.28;1.20;;;20.30;99.90;;;19.44;66.68;100686.69;5090358;28;20031;-60
2021/06/11 05:28:33;;;;;;;1.80;1.42;;;20.20;99.90;;;19.44;67.03;100686.69;5090908;28;20052;-55
2021/06/11 05:30:59;;;;;;;1.48;1.02;;;20.20;99.90;;;19.27;67.71;100690.69;5091003;28;20051;-55
2021/06/11 05:33:24;;;;;;;3.15;1.42;;;20.10;99.90;;;19.23;68.12;100684.19;5090790;28;20089;-59
2021/06/11 05:35:52;;;;;;;1.90;1.50;;;20.00;99.90;;;19.18;68.47;100682.13;5089290;28;20086;-57
2021/06/11 05:38:19;;;;;;;1.90;1.20;;;19.90;99.90;;;19.41;67.84;100687.09;5072414;28;20055;-52
2021/06/11 05:40:45;;;;;;;3.05;1.65;;;20.00;99.90;;;19.61;67.28;100691.69;5089582;28;20672;-57
2021/06/11 05:43:13;;;;;;;1.98;1.55;;;20.30;99.90;;;19.84;66.96;100684.25;5090685;28;20028;-54
2021/06/11 05:45:38;;;;;;;2.65;1.20;;;20.40;99.90;;;20.02;66.51;100681.00;5090694;28;20423;-58
2021/06/11 05:48:05;;;;;;;1.30;0.85;;;20.70;99.90;;;20.01;66.37;100682.03;5090783;28;20036;-61
2021/06/11 05:50:32;;;;;;;2.25;1.17;;;20.70;99.90;;;20.12;66.11;100684.91;5091233;28;20024;-57
2021/06/11 05:52:59;;;;;;;8.07;1.30;;;20.70;99.90;;;20.56;64.59;100688.81;5089240;28;20036;-59
2021/06/11 05:55:26;;;;;;;4.30;2.55;;;21.20;99.90;;;20.97;63.32;100695.69;5090859;28;20122;-56
2021/06/11 05:57:53;;;;;;;1.40;1.20;;;21.70;99.90;;;20.51;65.01;100692.06;5090169;28;20099;-53
2021/06/11 06:00:20;;;;;;;4.65;1.35;;;21.60;99.90;;;20.38;65.35;100691.25;5088908;28;20068;-57
2021/06/11 06:02:46;;;;;;;2.28;0.95;;;21.40;99.90;;;20.50;64.78;100698.38;5090156;28;20034;-59
2021/06/11 06:05:14;;;;;;;2.95;1.13;;;21.30;99.90;;;20.70;64.03;100697.56;5090825;28;20342;-56
2021/06/11 06:07:42;;;;;;;1.63;1.10;;;21.40;99.90;;;20.61;63.82;100693.50;5072233;28;20040;-59
2021/06/11 06:10:09;;;;;;;4.10;1.50;;;21.30;99.90;;;20.73;63.65;100695.31;5090205;28;20035;-58
2021/06/11 06:12:35;;;;;;;2.90;1.25;;;21.40;99.90;;;20.67;64.19;100688.19;5090240;28;20032;-53
2021/06/11 06:15:03;;;;;;;3.53;1.13;;;21.40;99.90;;;20.60;64.34;100697.16;5090648;28;20039;-57
2021/06/11 06:17:34;;;;;;;4.80;0.77;;;21.40;99.90;;;20.50;64.57;100701.03;5089905;28;20050;-56
2021/06/11 06:20:05;;;;;;;1.33;1.13;;;21.20;99.90;;;20.63;64.40;100702.84;5090296;28;20400;-55
2021/06/11 06:22:31;;;;;;;4.85;1.60;;;21.20;99.90;;;20.36;65.66;100711.75;5090158;28;20032;-59
2021/06/11 06:24:57;;;;;;;2.58;1.20;;;21.10;99.90;;;20.15;66.27;100712.78;5089912;28;20506;-52
2021/06/11 06:27:23;;;;;;;1.30;0.93;;;20.90;99.90;;;20.07;66.54;100711.13;5089893;28;20042;-55
2021/06/11 06:29:49;;;;;;;2.33;1.20;;;20.80;99.90;;;19.88;67.35;100714.53;5088266;28;20567;-61
2021/06/11 06:32:15;;;;;;;2.78;1.20;;;20.60;99.90;;;19.87;67.21;100712.91;5089773;28;20071;-58
2021/06/11 06:34:41;;;;;;;5.20;1.10;;;20.60;99.90;;;19.66;67.53;100719.16;5089796;28;20063;-54
2021/06/11 06:37:10;;;;;;;1.63;1.25;;;20.40;99.90;;;19.52;68.35;100723.56;5089605;28;20028;-55
2021/06/11 06:39:40;;;;;;;2.70;1.20;;;20.30;99.90;;;19.61;68.06;100728.69;5088158;28;20443;-60
2021/06/11 06:42:07;;;;;;;4.03;1.52;;;20.20;99.90;;;19.60;68.25;100719.94;5088192;28;20024;-57
2021/06/11 06:44:33;;;;;;;4.95;1.05;;;20.30;99.90;;;19.98;67.18;100720.25;5089300;28;20042;-58
2021/06/11 06:47:00;;;;;;;5.20;1.60;;;20.50;99.90;;;20.14;66.76;100714.59;5088970;28;20052;-56
2021/06/11 06:49:28;;;;;;;2.95;1.17;;;20.60;99.90;;;20.44;66.33;100724.84;5089487;28;20035;-60
2021/06/11 06:51:54;;;;;;;2.05;1.15;;;20.80;99.90;;;20.37;66.22;100723.97;5088071;28;20107;-56
2021/06/11 06:54:20;;;;;;;4.32;0.75;;;20.90;99.90;;;20.38;66.10;100725.63;5089736;28;20077;-55
2021/06/11 06:56:46;;;;;;;1.25;1.05;;;20.90;99.90;;;20.67;65.15;100725.25;5089311;28;20036;-60
2021/06/11 06:59:12;;;;;;;2.85;1.20;;;21.20;99.90;;;20.78;65.03;100724.66;5089125;28;20024;-57
2021/06/11 07:01:38;;;;;;;2.28;1.02;;;21.30;99.90;;;20.77;64.47;100724.84;5087749;28;20043;-57
2021/06/11 07:04:04;;;;;;;2.00;1.02;;;21.30;99.90;;;20.64;65.26;100730.97;5088898;28;20111;-57
2021/06/11 07:06:30;;;;;;;1.88;1.17;;;21.30;99.90;;;20.91;64.56;100733.56;5089086;28;20036;-55
2021/06/11 07:08:56;;;;;;;1.80;1.17;;;21.50;99.90;;;20.90;63.84;100732.75;5089325;28;20118;-61
2021/06/11 07:11:23;;;;;;;2.35;1.00;;;21.40;99.90;;;21.14;63.58;100741.91;5088854;28;20458;-57
2021/06/11 07:13:49;;;;;;;2.53;1.42;;;21.70;99.90;;;21.24;64.06;100733.56;5088995;28;20027;-56
2021/06/11 07:16:15;;;;;;;2.13;0.90;;;21.80;99.90;;;21.35;63.01;100735.56;5089066;28;20035;-58
2021/06/11 07:18:41;;;;;;;1.80;0.88;;;22.10;99.90;;;21.23;63.02;100743.34;5088987;28;20050;-55
2021/06/11 07:21:08;;;;;;;1.73;0.80;;;21.90;99.90;;;21.16;63.05;100729.28;5089296;28;20028;-52
2021/06/11 07:23:35;;;;;;;3.45;1.25;;;21.90;99.90;;;20.98;63.12;100731.75;5089142;28;20031;-57
2021/06/11 07:26:08;;;;;;;2.03;0.70;;;21.70;99.90;;;21.09;62.86;100736.41;5088743;28;20039;-60
2021/06/11 07:28:36;;;;;;;1.90;0.90;;;21.70;99.90;;;20.94;63.61;100736.63;5070973;28;20089;-59
2021/06/11 07:31:04;;;;;;;3.92;1.10;;;21.50;99.90;;;20.90;63.74;100729.31;5088774;28;20032;-55
2021/06/11 07:33:30;;;;;;;2.83;0.90;;;21.40;99.90;;;20.89;63.61;100728.50;5088783;28;20059;-55
2021/06/11 07:35:57;;;;;;;3.10;0.90;;;21.50;99.90;;;20.68;63.87;100731.38;5088788;28;20050;-54
2021/06/11 07:38:25;;;;;;;1.10;0.82;;;21.40;99.90;;;20.76;63.88;100726.69;5070232;28;20036;-57
2021/06/11 07:40:53;;;;;;;1.52;0.85;;;21.40;99.90;;;20.77;64.26;100723.03;5088672;28;20395;-58
2021/06/11 07:43:20;;;;;;;1.30;0.95;;;21.40;99.90;;;20.90;63.86;100724.00;5087397;28;20375;-58
2021/06/11 07:45:48;;;;;;;1.25;0.77;;;21.40;99.90;;;21.02;64.01;100730.31;5088551;28;20032;-59
2021/06/11 07:48:14;;;;;;;3.10;1.08;;;21.40;99.90;;;21.22;63.91;100731.13;5088878;28;20076;-60
2021/06/11 07:50:41;;;;;;;2.83;0.90;;;21.70;99.90;;;21.22;63.47;100735.59;5070217;28;20036;-57
2021/06/11 07:53:07;;;;;;;3.95;1.20;;;21.80;99.90;;;21.12;63.86;100733.34;5088391;28;20036;-54
2021/06/11 07:55:33;;;;;;;4.72;1.08;;;21.70;99.90;;;21.17;63.89;100737.00;5088401;28;20107;-60
2021/06/11 07:57:59;;;;;;;2.15;1.02;;;21.70;99.90;;;21.28;63.69;100735.56;5088625;28;20036;-60
2021/06/11 08:00:26;;;;;;;1.98;0.80;;;21.70;99.90;;;21.20;63.35;100741.91;5088616;28;20032;-58
2021/06/11 08:02:57;;;;;;;1.42;0.90;;;21.80;99.90;;;21.31;63.06;100729.84;5088301;28;20028;-57
2021/06/11 08:05:24;;;;;;;2.85;1.17;;;21.90;99.90;;;21.37;62.98;100731.66;5088417;28;20554;-58
2021/06/11 08:07:51;;;;;;;2.65;0.70;;;21.90;99.90;;;21.68;62.21;100743.41;5088479;28;20058;-54
2021/06/11 08:10:18;;;;;;;4.50;0.98;;;22.10;99.90;;;21.99;60.75;100727.53;5086684;28;20447;-60
2021/06/11 08:12:44;;;;;;;3.80;0.90;;;22.30;99.90;;;22.14;60.45;100727.28;5088340;28;20039;-58
2021/06/11 08:15:11;;;;;;;5.60;1.77;;;22.50;99.90;;;22.52;59.69;100724.53;5088533;28;20336;-59
2021/06/11 08:17:38;;;;;;;5.32;0.90;;;22.80;99.60;;;23.11;58.19;100724.03;5089146;28;20077;-60
2021/06/11 08:20:10;;;;;;;2.85;0.88;;;23.40;98.70;;;23.35;57.09;100724.97;5091283;28;20027;-58
2021/06/11 08:22:39;;;;;;;3.92;0.85;;;23.80;97.60;;;23.86;56.33;100729.09;5092699;28;20036;-59
2021/06/11 08:25:07;;;;;;;4.13;1.23;;;24.10;96.90;;;24.17;55.79;100722.69;5092400;28;20294;-57
2021/06/11 08:27:34;;;;;;;5.38;0.77;;;24.60;95.70;;;24.22;55.30;100724.69;5092220;28;20040;-53
2021/06/11 08:30:00;;;;;;;2.25;0.73;;;24.70;95.20;;;24.43;54.48;100729.50;5092258;28;20556;-55
2021/06/11 08:32:26;;;;;;;2.03;0.75;;;24.90;94.50;;;24.31;55.04;100726.81;5092443;28;20108;-58
2021/06/11 08:34:52;;;;;;;3.00;0.95;;;24.90;93.90;;;24.47;54.92;100728.00;5092112;28;20044;-56
2021/06/11 08:37:20;;;;;;;2.22;0.90;;;25.00;93.70;;;24.46;54.87;100735.19;5092148;28;20032;-60
2021/06/11 08:39:52;;;;;;;1.58;0.60;;;25.10;93.20;;;24.51;54.72;100729.19;5073863;28;20031;-59
2021/06/11 08:42:30;;;;;;;1.30;0.70;;;25.00;93.30;;;24.20;54.88;100737.41;5090717;28;20035;-53
2021/06/11 08:45:08;;;;;;;2.50;0.60;;;24.90;92.70;;;24.13;54.65;100725.00;5090584;28;20040;-57
2021/06/11 08:47:35;;;;;;;6.00;1.20;;;24.80;92.90;;;24.17;54.76;100734.16;5091746;28;20165;-55
2021/06/11 08:50:03;;;;;;;2.53;1.10;;;24.80;92.90;;;24.56;54.67;100725.84;5092145;28;20032;-57
2021/06/11 08:52:29;;;;;;;1.45;1.15;;;25.00;93.10;;;24.89;54.12;100722.59;5092053;28;20067;-59
2021/06/11 08:54:57;;;;;;;3.67;0.88;;;25.30;92.30;;;24.76;54.11;100728.94;5091734;28;20036;-56
2021/06/11 08:57:23;;;;;;;4.15;0.90;;;25.30;92.00;;;24.85;53.87;100730.25;5091833;28;20032;-57
2021/06/11 08:59:53;;;;;;;1.20;0.80;;;25.40;91.80;;;25.17;52.91;100727.22;5073215;28;20059;-53
2021/06/11 09:02:25;;;;;;;6.53;0.90;;;25.60;91.50;;;25.69;51.78;100730.72;5091678;28;20040;-58
2021/06/11 09:04:55;;;;;;;1.67;0.70;;;25.90;91.30;;;25.99;51.17;100733.97;5073400;28;20485;-53
2021/06/11 09:07:32;;;;;;;2.88;0.60;;;26.40;90.30;;;26.11;49.73;100737.38;5090035;28;20335;-55
2021/06/11 09:10:07;;;;;;;3.70;1.10;;;26.50;88.70;;;26.57;49.78;100732.81;5091523;28;20039;-51
2021/06/11 09:12:42;;;;;;;3.05;0.80;;;26.80;88.80;;;27.02;46.73;100739.91;5072829;28;20040;-58
2021/06/11 09:15:15;;;;;;;1.00;0.80;;;27.30;85.80;;;26.95;48.52;100739.25;5091546;28;20028;-58
2021/06/11 09:17:53;;;;;;;2.70;0.80;;;27.40;84.50;;;27.44;45.94;100738.31;5091599;28;20092;-55
2021/06/11 09:20:26;;;;;;;4.57;1.02;;;27.80;81.10;;;27.10;46.93;100731.47;5089705;28;20032;-58
2021/06/11 09:22:57;;;;;;;5.47;0.80;;;27.70;80.30;;;26.60;48.16;100740.34;5091077;28;20036;-57
2021/06/11 09:25:36;;;;;;;2.45;0.88;;;27.50;79.40;;;26.66;47.60;100741.22;5089796;28;20123;-58
2021/06/11 09:28:03;;;;;;;5.00;0.75;;;27.50;78.40;;;26.64;48.59;100738.81;5090828;28;20044;-56
2021/06/11 09:30:38;;;;;;;5.32;0.70;;;27.30;80.50;;;27.27;46.20;100736.78;5091072;28;20032;-56
2021/06/11 09:33:11;;;;;;;3.17;0.88;;;27.70;78.60;;;27.42;45.98;100735.09;5091025;28;20044;-55
2021/06/11 09:35:42;;;;;;;5.25;0.90;;;28.00;77.10;;;27.00;45.45;100732.13;5089649;28;20521;-58
2021/06/11 09:38:13;;;;;;;1.98;0.60;;;28.00;74.70;;;26.61;46.63;100743.81;5090857;28;20574;-60
2021/06/11 09:40:47;;;;;;;2.20;0.70;;;27.60;74.80;;;26.32;47.27;100745.78;5090861;28;20024;-53
2021/06/11 09:43:14;;;;;;;1.15;0.75;;;27.20;75.90;;;26.43;48.73;100747.56;5091136;28;20034;-59
2021/06/11 09:45:41;;;;;;;2.33;0.82;;;27.30;77.40;;;26.66;47.39;100738.56;5089260;28;20028;-55
2021/06/11 09:48:28;;;;;;;2.85;0.90;;;27.40;76.20;;;26.28;46.34;100753.41;5090869;28;20081;-54
2021/06/11 09:50:56;;;;;;;1.92;0.80;;;27.20;74.30;;;26.12;47.69;100747.00;5056484;28;20186;-53
2021/06/11 09:53:29;;;;;;;3.55;0.90;;;27.10;74.90;;;26.56;47.35;100744.53;5089089;28;20052;-53
2021/06/11 09:55:57;;;;;;;2.67;1.10;;;27.20;75.60;;;26.30;49.25;100753.19;5090938;28;20032;-56
2021/06/11 09:58:28;;;;;;;4.45;0.88;;;27.20;77.40;;;25.95;48.74;100751.50;5090245;28;20483;-57
2021/06/11 10:01:08;;;;;;;2.20;0.60;;;27.00;76.00;;;26.13;47.89;100747.81;5090513;28;20028;-58
2021/06/11 10:03:37;;;;;;;1.70;0.90;;;26.90;76.80;;;26.27;48.65;100745.66;5090650;28;20115;-55
2021/06/11 10:06:07;;;;;;;3.97;0.65;;;26.90;77.30;;;26.15;46.77;100756.38;5088767;28;20431;-59
2021/06/11 10:08:35;;;;;;;1.77;0.60;;;27.10;74.00;;;26.28;46.90;100750.75;5090406;28;20039;-57
2021/06/11 10:11:05;;;;;;;2.13;0.75;;;27.00;73.20;;;26.93;45.85;100741.38;5090012;28;20074;-57
2021/06/11 10:13:32;;;;;;;1.55;0.70;;;27.40;73.70;;;27.30;44.99;100750.47;5090261;28;20635;-57
2021/06/11 10:16:05;;;;;;;1.52;0.70;;;27.80;72.30;;;27.76;44.08;100740.34;5090217;28;20052;-57
2021/06/11 10:18:31;;;;;;;2.13;0.77;;;28.20;71.50;;;28.35;43.39;100745.75;5090098;28;20032;-59
2021/06/11 10:20:58;;;;;;;2.00;1.30;;;28.70;71.10;;;28.51;42.75;100742.13;5090068;28;20040;-53